Time;durP1;ratioP1;P1;durP2;ratioP2;P2;SDS_P1;SDS_P2;PMS_P1;PMS_P2;Temp;Humidity;BMP_temperature;BMP_pressure;BME280_temperature;BME280_humidity;BME280_pressure;Samples;Min_cycle;Max_cycle;Signal;HPM_P1;HPM_P2
2022/05/31 00:01:49;;;;;;;1.50;1.40;;;;;;;;;;5043853;28;20200;-78
2022/05/31 00:04:17;;;;;;;2.42;1.88;;;;;;;;;;5045357;28;20196;-78
2022/05/31 00:06:44;;;;;;;2.53;1.48;;;;;;;;;;5039776;28;20202;-78
2022/05/31 00:09:11;;;;;;;1.40;1.25;;;;;;;;;;5038479;28;20207;-78
2022/05/31 00:11:38;;;;;;;1.65;1.52;;;;;;;;;;5038687;28;20208;-79
2022/05/31 00:14:06;;;;;;;1.63;1.50;;;;;;;;;;5043331;28;20207;-79
2022/05/31 00:16:33;;;;;;;1.83;1.50;;;;;;;;;;5049753;28;20220;-78
2022/05/31 00:19:00;;;;;;;4.03;1.77;;;;;;;;;;5047570;28;20531;-81
2022/05/31 00:21:34;;;;;;;5.35;1.48;;;;;;;;;;5045852;28;20570;-78
2022/05/31 00:24:01;;;;;;;2.30;1.70;;;;;;;;;;5040115;28;20198;-80
2022/05/31 00:26:28;;;;;;;2.88;1.58;;;;;;;;;;5045320;28;20752;-78
2022/05/31 00:28:55;;;;;;;1.70;1.60;;;;;;;;;;5046482;28;20207;-79
2022/05/31 00:31:23;;;;;;;2.95;1.52;;;;;;;;;;5044929;28;20214;-78
2022/05/31 00:33:51;;;;;;;2.08;1.70;;;;;;;;;;5033975;28;20734;-78
2022/05/31 00:36:18;;;;;;;2.67;1.95;;;;;;;;;;5046964;28;20202;-78
2022/05/31 00:38:45;;;;;;;1.48;1.30;;;;;;;;;;5048250;28;20651;-80
2022/05/31 00:41:25;;;;;;;1.70;1.58;;;;;;;;;;5037946;28;20552;-79
2022/05/31 00:43:52;;;;;;;5.53;1.98;;;;;;;;;;5047236;28;20199;-79
2022/05/31 00:46:21;;;;;;;3.13;1.75;;;;;;;;;;5045970;28;20230;-79
2022/05/31 00:48:51;;;;;;;1.38;1.27;;;;;;;;;;5052303;28;20238;-79
2022/05/31 00:51:19;;;;;;;5.82;1.90;;;;;;;;;;5047925;28;20589;-78
2022/05/31 00:53:48;;;;;;;4.70;1.45;;;;;;;;;;5049008;28;20207;-78
2022/05/31 00:56:18;;;;;;;1.98;1.40;;;;;;;;;;5045068;28;20669;-78
2022/05/31 00:58:47;;;;;;;1.88;1.52;;;;;;;;;;5039296;28;20207;-78
2022/05/31 01:01:16;;;;;;;1.70;1.27;;;;;;;;;;5042740;28;20314;-79
2022/05/31 01:03:44;;;;;;;2.13;1.70;;;;;;;;;;5053562;28;20203;-79
2022/05/31 01:06:13;;;;;;;1.83;1.50;;;;;;;;;;5048688;28;20697;-79
2022/05/31 01:08:44;;;;;;;2.75;1.80;;;;;;;;;;5052200;28;20654;-79
2022/05/31 01:11:11;;;;;;;5.50;1.67;;;;;;;;;;5048252;28;20241;-79
2022/05/31 01:13:38;;;;;;;2.95;1.50;;;;;;;;;;5046183;28;20203;-79
2022/05/31 01:16:07;;;;;;;3.15;1.48;;;;;;;;;;5046157;28;20211;-78
2022/05/31 01:18:34;;;;;;;3.15;1.73;;;;;;;;;;5051995;28;20200;-80
2022/05/31 01:21:02;;;;;;;3.53;1.55;;;;;;;;;;5036418;28;20210;-78
2022/05/31 01:23:32;;;;;;;4.75;1.52;;;;;;;;;;5043316;28;20192;-79
2022/05/31 01:26:02;;;;;;;2.70;2.50;;;;;;;;;;5042367;28;20266;-78
2022/05/31 01:28:43;;;;;;;2.45;2.08;;;;;;;;;;5046238;28;20203;-80
2022/05/31 01:31:12;;;;;;;2.80;1.33;;;;;;;;;;5048526;28;20806;-79
2022/05/31 01:33:42;;;;;;;1.55;1.38;;;;;;;;;;5046788;28;20203;-79
2022/05/31 01:36:13;;;;;;;1.60;1.40;;;;;;;;;;5047977;28;20248;-78
2022/05/31 01:38:42;;;;;;;2.17;1.83;;;;;;;;;;5045374;28;20250;-79
2022/05/31 01:41:12;;;;;;;1.83;1.60;;;;;;;;;;5042723;28;20192;-78
2022/05/31 01:43:43;;;;;;;2.45;1.75;;;;;;;;;;5050063;28;20289;-80
2022/05/31 01:46:11;;;;;;;1.70;1.50;;;;;;;;;;5041021;28;20203;-78
2022/05/31 01:48:39;;;;;;;3.80;1.58;;;;;;;;;;5050520;28;20199;-79
2022/05/31 01:51:06;;;;;;;2.20;1.67;;;;;;;;;;5045891;28;20697;-78
2022/05/31 01:53:35;;;;;;;1.58;1.48;;;;;;;;;;5040192;28;20200;-78
2022/05/31 01:56:02;;;;;;;2.50;1.95;;;;;;;;;;5047553;28;20203;-80
2022/05/31 01:58:33;;;;;;;1.85;1.58;;;;;;;;;;5046356;28;20623;-80
2022/05/31 02:01:01;;;;;;;2.75;1.90;;;;;;;;;;5045745;28;20234;-81
2022/05/31 02:03:28;;;;;;;2.83;2.03;;;;;;;;;;5051749;28;20203;-79
2022/05/31 02:05:56;;;;;;;2.25;1.90;;;;;;;;;;5048354;28;21058;-78
2022/05/31 02:08:24;;;;;;;3.35;2.15;;;;;;;;;;5040464;28;20664;-80
2022/05/31 02:10:54;;;;;;;2.28;2.08;;;;;;;;;;5039096;28;20236;-80
2022/05/31 02:13:21;;;;;;;2.20;2.00;;;;;;;;;;5041281;28;20601;-78
2022/05/31 02:15:48;;;;;;;2.35;1.55;;;;;;;;;;5043104;28;20203;-79
2022/05/31 02:18:16;;;;;;;3.15;2.15;;;;;;;;;;5052329;28;20647;-80
2022/05/31 02:20:43;;;;;;;2.17;1.70;;;;;;;;;;5048414;28;20198;-79
2022/05/31 02:23:10;;;;;;;6.15;1.95;;;;;;;;;;5037934;28;20204;-79
2022/05/31 02:25:37;;;;;;;1.75;1.48;;;;;;;;;;5042086;28;20203;-79
2022/05/31 02:28:06;;;;;;;1.95;1.67;;;;;;;;;;5047362;28;20546;-80
2022/05/31 02:30:33;;;;;;;4.47;2.00;;;;;;;;;;5048307;28;20685;-80
2022/05/31 02:33:00;;;;;;;2.05;1.65;;;;;;;;;;5044710;28;20582;-79
2022/05/31 02:35:27;;;;;;;1.75;1.27;;;;;;;;;;5056149;28;20696;-81
2022/05/31 02:37:55;;;;;;;1.70;1.60;;;;;;;;;;5051638;28;20199;-80
2022/05/31 02:40:22;;;;;;;1.92;1.52;;;;;;;;;;5038040;28;20557;-80
2022/05/31 02:42:49;;;;;;;2.65;1.42;;;;;;;;;;5032965;28;20222;-80
2022/05/31 02:45:18;;;;;;;1.80;1.60;;;;;;;;;;5049943;28;20209;-79
2022/05/31 02:47:45;;;;;;;2.63;1.90;;;;;;;;;;5052678;28;20273;-78
2022/05/31 02:50:12;;;;;;;3.67;1.98;;;;;;;;;;5040811;28;20713;-79
2022/05/31 02:52:39;;;;;;;5.35;2.65;;;;;;;;;;5042740;28;20689;-79
2022/05/31 02:55:07;;;;;;;4.97;1.60;;;;;;;;;;5042853;28;20206;-82
2022/05/31 02:57:34;;;;;;;2.47;2.10;;;;;;;;;;5044576;28;20195;-82
2022/05/31 03:00:01;;;;;;;2.40;2.20;;;;;;;;;;5038846;28;20574;-81
2022/05/31 03:02:29;;;;;;;2.28;1.63;;;;;;;;;;5041708;28;20210;-82
2022/05/31 03:04:56;;;;;;;2.05;1.90;;;;;;;;;;5047979;28;20204;-81
2022/05/31 03:07:23;;;;;;;3.33;1.50;;;;;;;;;;5046871;28;20202;-82
2022/05/31 03:09:50;;;;;;;3.20;2.40;;;;;;;;;;5044172;28;20749;-82
2022/05/31 03:12:19;;;;;;;1.50;1.40;;;;;;;;;;5039084;28;20223;-84
2022/05/31 03:14:49;;;;;;;2.70;2.00;;;;;;;;;;5047745;28;20557;-85
2022/05/31 03:17:18;;;;;;;1.75;1.50;;;;;;;;;;5039983;28;20199;-85
2022/05/31 03:19:48;;;;;;;3.55;1.60;;;;;;;;;;5042373;28;20226;-83
2022/05/31 03:22:18;;;;;;;2.22;2.03;;;;;;;;;;5046769;28;20563;-82
2022/05/31 03:24:48;;;;;;;2.42;2.22;;;;;;;;;;5047690;28;20222;-83
2022/05/31 03:27:15;;;;;;;8.45;1.98;;;;;;;;;;5045876;28;20198;-82
2022/05/31 03:29:45;;;;;;;2.67;1.90;;;;;;;;;;5047765;28;20202;-82
2022/05/31 03:32:12;;;;;;;2.60;1.95;;;;;;;;;;5038268;28;20723;-82
2022/05/31 03:34:39;;;;;;;2.60;2.13;;;;;;;;;;5042196;28;20198;-83
2022/05/31 03:37:08;;;;;;;2.25;2.03;;;;;;;;;;5050691;28;20194;-84
2022/05/31 03:39:35;;;;;;;7.22;2.05;;;;;;;;;;5050207;28;20195;-83
2022/05/31 03:42:02;;;;;;;2.72;1.90;;;;;;;;;;5030709;28;20582;-85
2022/05/31 03:44:29;;;;;;;3.28;1.90;;;;;;;;;;5049406;28;20205;-83
2022/05/31 03:46:56;;;;;;;2.80;2.00;;;;;;;;;;5042212;28;20206;-83
2022/05/31 03:49:23;;;;;;;3.50;1.73;;;;;;;;;;5038593;28;20591;-83
2022/05/31 03:51:50;;;;;;;2.47;2.28;;;;;;;;;;5043621;28;20222;-83
2022/05/31 03:54:18;;;;;;;2.15;1.60;;;;;;;;;;5041700;28;20206;-83
2022/05/31 03:56:45;;;;;;;3.72;2.17;;;;;;;;;;5049404;28;20230;-83
2022/05/31 03:59:12;;;;;;;1.98;1.77;;;;;;;;;;5050340;28;20680;-83
2022/05/31 04:01:39;;;;;;;2.20;2.00;;;;;;;;;;5049996;28;20195;-84
2022/05/31 04:04:06;;;;;;;1.63;1.52;;;;;;;;;;5048122;28;20205;-81
2022/05/31 04:06:35;;;;;;;2.20;1.88;;;;;;;;;;5031099;28;20254;-81
2022/05/31 04:09:02;;;;;;;2.15;1.95;;;;;;;;;;5035428;28;20882;-80
2022/05/31 04:11:30;;;;;;;2.00;1.45;;;;;;;;;;5041200;28;20223;-80
2022/05/31 04:13:57;;;;;;;3.00;2.25;;;;;;;;;;5045577;28;20207;-80
2022/05/31 04:16:26;;;;;;;2.13;1.92;;;;;;;;;;5047805;28;20217;-81
2022/05/31 04:18:54;;;;;;;3.92;2.17;;;;;;;;;;5046109;28;20211;-80
2022/05/31 04:21:21;;;;;;;2.47;2.28;;;;;;;;;;5044640;28;20198;-81
2022/05/31 04:24:08;;;;;;;2.95;1.80;;;;;;;;;;5051113;28;20195;-81
2022/05/31 04:26:39;;;;;;;2.38;2.17;;;;;;;;;;5049259;28;20264;-80
2022/05/31 04:29:06;;;;;;;2.08;1.88;;;;;;;;;;5044271;28;21480;-80
2022/05/31 04:31:33;;;;;;;1.70;1.60;;;;;;;;;;5052271;28;20260;-81
2022/05/31 04:34:00;;;;;;;2.85;1.80;;;;;;;;;;5049845;28;20240;-79
2022/05/31 04:36:27;;;;;;;1.90;1.80;;;;;;;;;;5055087;28;20207;-80
2022/05/31 04:38:54;;;;;;;1.95;1.50;;;;;;;;;;5050454;28;20198;-80
2022/05/31 04:41:22;;;;;;;2.60;1.80;;;;;;;;;;5052495;28;20227;-79
2022/05/31 04:43:52;;;;;;;1.98;1.73;;;;;;;;;;5043911;28;20643;-80
2022/05/31 04:46:20;;;;;;;1.85;1.70;;;;;;;;;;5050768;28;20206;-79
2022/05/31 04:48:47;;;;;;;2.95;2.10;;;;;;;;;;5042721;28;20192;-80
2022/05/31 04:51:15;;;;;;;3.08;2.30;;;;;;;;;;5043304;28;20674;-82
2022/05/31 04:53:42;;;;;;;2.20;2.00;;;;;;;;;;5046876;28;20194;-80
2022/05/31 04:56:11;;;;;;;2.15;1.80;;;;;;;;;;5051246;28;20195;-80
2022/05/31 04:58:38;;;;;;;2.35;1.90;;;;;;;;;;5052808;28;20658;-80
2022/05/31 05:01:07;;;;;;;2.92;2.20;;;;;;;;;;5045059;28;20646;-80
2022/05/31 05:03:34;;;;;;;4.38;1.75;;;;;;;;;;5049256;28;20229;-80
2022/05/31 05:06:02;;;;;;;2.38;1.48;;;;;;;;;;5041538;28;20666;-80
2022/05/31 05:08:29;;;;;;;1.98;1.80;;;;;;;;;;5048506;28;20199;-82
2022/05/31 05:10:56;;;;;;;2.65;2.00;;;;;;;;;;5041621;28;20219;-82
2022/05/31 05:13:23;;;;;;;2.72;2.40;;;;;;;;;;5050408;28;20203;-82
2022/05/31 05:15:53;;;;;;;2.10;1.90;;;;;;;;;;5044815;28;20712;-80
2022/05/31 05:18:21;;;;;;;2.85;2.08;;;;;;;;;;5044587;28;20658;-81
2022/05/31 05:20:48;;;;;;;2.15;1.95;;;;;;;;;;5042001;28;20209;-81
2022/05/31 05:23:16;;;;;;;2.17;1.95;;;;;;;;;;5051062;28;20194;-80
2022/05/31 05:25:48;;;;;;;3.67;2.38;;;;;;;;;;5038799;28;20214;-82
2022/05/31 05:30:59;;;;;;;2.30;1.50;;;;;;;;;;5048538;28;20372;-82
2022/05/31 05:33:28;;;;;;;2.20;2.00;;;;;;;;;;5044899;28;20602;-82
2022/05/31 05:35:55;;;;;;;3.17;2.40;;;;;;;;;;5040393;28;20210;-82
2022/05/31 05:38:22;;;;;;;2.63;1.70;;;;;;;;;;5051334;28;20199;-82
2022/05/31 05:40:49;;;;;;;4.30;1.70;;;;;;;;;;5051831;28;20498;-80
2022/05/31 05:43:17;;;;;;;3.67;2.40;;;;;;;;;;5045300;28;20231;-82
2022/05/31 05:45:44;;;;;;;1.90;1.60;;;;;;;;;;5048159;28;20286;-83
2022/05/31 05:48:11;;;;;;;2.55;2.35;;;;;;;;;;5052953;28;20199;-83
2022/05/31 05:50:40;;;;;;;2.08;1.70;;;;;;;;;;5034938;28;20206;-83
2022/05/31 05:53:08;;;;;;;2.45;1.60;;;;;;;;;;5035355;28;20207;-83
2022/05/31 05:55:36;;;;;;;1.75;1.65;;;;;;;;;;5044106;28;20682;-83
2022/05/31 05:58:03;;;;;;;1.73;1.60;;;;;;;;;;5044671;28;20229;-83
2022/05/31 06:00:31;;;;;;;3.08;1.90;;;;;;;;;;5042639;28;20214;-83
2022/05/31 06:03:02;;;;;;;2.78;1.80;;;;;;;;;;5044453;28;20195;-86
2022/05/31 06:05:30;;;;;;;3.17;2.03;;;;;;;;;;5042532;28;20866;-83
2022/05/31 06:08:01;;;;;;;3.97;2.10;;;;;;;;;;5044881;28;20272;-82
2022/05/31 06:10:31;;;;;;;1.80;1.45;;;;;;;;;;5040145;28;20196;-82
2022/05/31 06:13:01;;;;;;;1.60;1.50;;;;;;;;;;5050016;28;20214;-83
2022/05/31 06:15:30;;;;;;;3.55;2.13;;;;;;;;;;5040464;28;20689;-81
2022/05/31 06:17:59;;;;;;;3.25;2.30;;;;;;;;;;5047905;28;20231;-81
2022/05/31 06:20:27;;;;;;;1.50;1.40;;;;;;;;;;5035171;28;20206;-80
2022/05/31 06:22:55;;;;;;;2.20;2.00;;;;;;;;;;5051852;28;20199;-82
2022/05/31 06:25:23;;;;;;;2.40;1.70;;;;;;;;;;5050995;28;20199;-82
2022/05/31 06:27:51;;;;;;;2.05;1.95;;;;;;;;;;5045960;28;20776;-82
2022/05/31 06:30:18;;;;;;;4.20;2.00;;;;;;;;;;5049492;28;20203;-82
2022/05/31 06:32:45;;;;;;;2.80;1.75;;;;;;;;;;5047875;28;20223;-82
2022/05/31 06:35:12;;;;;;;4.30;2.00;;;;;;;;;;5043157;28;20204;-83
2022/05/31 06:37:39;;;;;;;2.03;1.70;;;;;;;;;;5049985;28;20282;-82
2022/05/31 06:40:07;;;;;;;2.40;1.67;;;;;;;;;;5049690;28;20194;-83
2022/05/31 06:42:35;;;;;;;3.50;1.80;;;;;;;;;;5050584;28;20699;-82
2022/05/31 06:45:03;;;;;;;2.55;2.17;;;;;;;;;;5042322;28;20662;-82
2022/05/31 06:47:30;;;;;;;2.88;2.65;;;;;;;;;;5038635;28;20206;-83
2022/05/31 06:49:57;;;;;;;2.83;1.70;;;;;;;;;;5042900;28;20670;-83
2022/05/31 06:57:56;;;;;;;1.80;1.35;;;;;;;;;;5046924;28;20209;-83
2022/05/31 07:00:23;;;;;;;2.53;2.33;;;;;;;;;;5044447;28;20807;-84
2022/05/31 07:02:51;;;;;;;4.72;2.00;;;;;;;;;;5046120;28;20253;-84
2022/05/31 07:05:19;;;;;;;2.28;2.08;;;;;;;;;;5040217;28;20234;-84
2022/05/31 07:07:46;;;;;;;3.60;2.03;;;;;;;;;;5049488;28;20654;-83
2022/05/31 07:10:13;;;;;;;5.57;2.13;;;;;;;;;;5046116;28;20190;-83
2022/05/31 07:12:42;;;;;;;5.22;3.25;;;;;;;;;;5046802;28;20237;-83
2022/05/31 07:15:10;;;;;;;2.75;1.92;;;;;;;;;;5046793;28;20211;-83
2022/05/31 07:17:37;;;;;;;2.15;1.60;;;;;;;;;;5046840;28;20199;-83
2022/05/31 07:20:05;;;;;;;4.30;2.45;;;;;;;;;;5041969;28;20195;-83
2022/05/31 07:22:32;;;;;;;3.17;2.05;;;;;;;;;;5032777;28;20195;-83
2022/05/31 07:24:59;;;;;;;4.22;2.15;;;;;;;;;;5045264;28;20203;-83
2022/05/31 07:27:26;;;;;;;2.63;1.90;;;;;;;;;;5048305;28;20194;-80
2022/05/31 07:29:54;;;;;;;6.80;2.53;;;;;;;;;;5045965;28;20574;-80
2022/05/31 07:32:24;;;;;;;2.25;2.00;;;;;;;;;;5043672;28;20230;-84
2022/05/31 07:34:51;;;;;;;6.32;2.05;;;;;;;;;;5046127;28;20208;-84
2022/05/31 07:37:18;;;;;;;2.15;1.70;;;;;;;;;;5051849;28;20619;-84
2022/05/31 07:39:47;;;;;;;3.95;2.65;;;;;;;;;;5044133;28;20752;-83
2022/05/31 07:42:15;;;;;;;2.47;1.90;;;;;;;;;;5048077;28;20229;-85
2022/05/31 07:44:42;;;;;;;2.55;1.80;;;;;;;;;;5041987;28;20567;-85
2022/05/31 07:47:09;;;;;;;3.15;1.65;;;;;;;;;;5046886;28;20194;-85
2022/05/31 07:49:37;;;;;;;2.47;1.55;;;;;;;;;;5049730;28;20195;-84
2022/05/31 07:52:08;;;;;;;3.80;1.70;;;;;;;;;;5051252;28;20218;-84
2022/05/31 07:54:35;;;;;;;4.22;2.15;;;;;;;;;;5049881;28;20649;-83
2022/05/31 07:57:05;;;;;;;2.83;2.60;;;;;;;;;;5048060;28;20206;-84
2022/05/31 07:59:32;;;;;;;4.55;2.40;;;;;;;;;;5046883;28;20192;-84
2022/05/31 08:01:59;;;;;;;5.13;2.50;;;;;;;;;;5053876;28;20273;-83
2022/05/31 08:04:26;;;;;;;5.57;3.28;;;;;;;;;;5042567;28;20202;-84
2022/05/31 08:06:59;;;;;;;4.97;2.63;;;;;;;;;;5049043;28;20291;-84
2022/05/31 08:09:27;;;;;;;3.65;2.20;;;;;;;;;;5050334;28;20200;-84
2022/05/31 08:11:54;;;;;;;3.70;2.60;;;;;;;;;;5052996;28;20215;-83
2022/05/31 08:14:21;;;;;;;4.00;2.75;;;;;;;;;;5051509;28;20197;-82
2022/05/31 08:16:48;;;;;;;8.18;3.45;;;;;;;;;;5046151;28;20214;-84
2022/05/31 08:19:15;;;;;;;8.32;2.20;;;;;;;;;;5041319;28;20203;-85
2022/05/31 08:21:42;;;;;;;2.75;2.38;;;;;;;;;;5056210;28;20195;-83
2022/05/31 08:24:11;;;;;;;2.53;2.17;;;;;;;;;;5047714;28;20206;-84
2022/05/31 08:26:38;;;;;;;2.55;2.35;;;;;;;;;;5051964;28;20202;-83
2022/05/31 08:29:05;;;;;;;6.07;2.85;;;;;;;;;;5042263;28;20199;-82
2022/05/31 08:31:36;;;;;;;2.65;2.13;;;;;;;;;;5048956;28;20217;-84
2022/05/31 08:34:04;;;;;;;3.03;1.95;;;;;;;;;;5043880;28;20241;-83
2022/05/31 08:36:31;;;;;;;6.28;2.40;;;;;;;;;;5054690;28;20643;-84
2022/05/31 08:38:58;;;;;;;4.70;2.42;;;;;;;;;;5047758;28;20195;-82
2022/05/31 08:41:28;;;;;;;6.10;2.72;;;;;;;;;;5053601;28;20763;-83
2022/05/31 08:44:00;;;;;;;2.47;1.90;;;;;;;;;;5055442;28;20191;-83
2022/05/31 08:46:32;;;;;;;2.72;2.00;;;;;;;;;;5040315;28;20646;-82
2022/05/31 08:49:00;;;;;;;2.45;2.13;;;;;;;;;;5051709;28;20214;-81
2022/05/31 08:51:54;;;;;;;3.65;3.17;;;;;;;;;;5049739;28;20200;-83
2022/05/31 08:57:27;;;;;;;4.47;2.65;;;;;;;;;;4978467;28;20236;-82
2022/05/31 08:59:57;;;;;;;4.75;3.22;;;;;;;;;;5027951;28;20697;-80
2022/05/31 09:02:26;;;;;;;3.92;2.95;;;;;;;;;;5044097;28;20206;-82
2022/05/31 09:04:59;;;;;;;3.50;2.40;;;;;;;;;;5036105;28;20202;-82
2022/05/31 09:07:29;;;;;;;3.00;2.70;;;;;;;;;;5037826;28;20222;-83
2022/05/31 09:09:59;;;;;;;5.88;2.53;;;;;;;;;;5039997;28;20199;-82
2022/05/31 09:12:31;;;;;;;8.43;2.97;;;;;;;;;;5040707;28;20211;-84
2022/05/31 09:15:02;;;;;;;5.75;2.78;;;;;;;;;;5038892;28;20666;-82
2022/05/31 09:17:35;;;;;;;2.63;2.40;;;;;;;;;;5039583;28;20298;-82
2022/05/31 09:20:04;;;;;;;2.35;2.10;;;;;;;;;;5040937;28;20647;-83
2022/05/31 09:22:32;;;;;;;5.13;1.92;;;;;;;;;;5042184;28;20638;-81
2022/05/31 09:25:00;;;;;;;7.88;1.50;;;;;;;;;;5052611;28;20206;-81
2022/05/31 09:27:38;;;;;;;1.80;1.60;;;;;;;;;;5038981;28;20739;-83
2022/05/31 09:30:07;;;;;;;4.28;1.65;;;;;;;;;;5047838;28;20535;-82
2022/05/31 09:32:41;;;;;;;1.85;1.50;;;;;;;;;;5043776;28;20309;-81
2022/05/31 09:35:13;;;;;;;3.25;1.40;;;;;;;;;;5048570;28;20202;-81
2022/05/31 09:37:50;;;;;;;1.83;1.65;;;;;;;;;;5051484;28;20249;-82
2022/05/31 09:40:25;;;;;;;1.70;1.52;;;;;;;;;;5052941;28;20198;-81
2022/05/31 09:43:01;;;;;;;1.67;1.45;;;;;;;;;;5055872;28;20218;-81
2022/05/31 09:45:29;;;;;;;2.03;1.55;;;;;;;;;;5044156;28;20195;-81
2022/05/31 09:47:59;;;;;;;1.85;1.45;;;;;;;;;;5048550;28;20211;-81
2022/05/31 09:50:27;;;;;;;1.60;1.50;;;;;;;;;;5039731;28;20204;-81
2022/05/31 09:52:56;;;;;;;1.52;1.35;;;;;;;;;;5044902;28;20215;-81
2022/05/31 09:58:21;;;;;;;2.10;1.75;;;;;;;;;;5050895;28;20209;-81
2022/05/31 10:01:01;;;;;;;1.85;1.65;;;;;;;;;;5046611;28;20566;-81
2022/05/31 10:03:35;;;;;;;1.73;1.50;;;;;;;;;;5051505;28;20220;-80
2022/05/31 10:06:07;;;;;;;1.50;1.40;;;;;;;;;;5043612;28;20195;-80
2022/05/31 10:08:36;;;;;;;1.50;1.40;;;;;;;;;;5051959;28;20211;-80
2022/05/31 10:11:05;;;;;;;1.52;1.33;;;;;;;;;;5044282;28;20199;-80
2022/05/31 10:13:38;;;;;;;2.85;1.40;;;;;;;;;;5044495;28;20227;-81
2022/05/31 10:16:10;;;;;;;2.90;1.50;;;;;;;;;;5051897;28;20215;-80
2022/05/31 10:18:46;;;;;;;1.50;1.40;;;;;;;;;;5051731;28;20310;-80
2022/05/31 10:21:13;;;;;;;1.33;1.00;;;;;;;;;;5039081;28;20206;-81
2022/05/31 10:23:42;;;;;;;2.05;1.48;;;;;;;;;;5046262;28;20278;-81
2022/05/31 10:26:24;;;;;;;1.50;1.25;;;;;;;;;;5051654;28;20286;-82
2022/05/31 10:28:54;;;;;;;1.83;1.55;;;;;;;;;;5044244;28;20203;-81
2022/05/31 10:31:23;;;;;;;1.55;1.40;;;;;;;;;;5048222;28;20205;-81
2022/05/31 10:33:53;;;;;;;1.95;1.40;;;;;;;;;;5048086;28;20218;-81
2022/05/31 10:36:21;;;;;;;1.55;1.40;;;;;;;;;;5043029;28;20218;-80
2022/05/31 10:38:49;;;;;;;2.10;1.00;;;;;;;;;;5044698;28;20583;-82
2022/05/31 10:41:25;;;;;;;1.75;1.40;;;;;;;;;;5046656;28;20209;-81
2022/05/31 10:43:58;;;;;;;1.50;1.40;;;;;;;;;;5042463;28;20195;-81
2022/05/31 10:46:27;;;;;;;2.28;1.70;;;;;;;;;;5045089;28;20222;-81
2022/05/31 10:48:56;;;;;;;1.70;1.60;;;;;;;;;;5042245;28;20195;-82
2022/05/31 10:51:28;;;;;;;1.63;1.52;;;;;;;;;;5048809;28;20511;-82
2022/05/31 10:54:02;;;;;;;1.63;1.50;;;;;;;;;;5042384;28;20219;-81
2022/05/31 10:56:32;;;;;;;1.42;1.20;;;;;;;;;;5045962;28;20190;-82
2022/05/31 10:59:02;;;;;;;2.85;1.50;;;;;;;;;;5046486;28;20199;-80
2022/05/31 11:01:46;;;;;;;1.90;1.70;;;;;;;;;;5031827;28;20199;-81
2022/05/31 11:04:26;;;;;;;2.20;1.42;;;;;;;;;;5041821;28;20201;-85
2022/05/31 11:07:04;;;;;;;2.10;1.65;;;;;;;;;;5047548;28;20678;-86
2022/05/31 11:12:29;;;;;;;3.17;1.77;;;;;;;;;;5043756;28;20206;-82
2022/05/31 11:15:03;;;;;;;3.17;1.27;;;;;;;;;;5052168;28;20206;-82
2022/05/31 11:17:37;;;;;;;7.95;2.05;;;;;;;;;;5047967;28;20271;-83
2022/05/31 11:20:07;;;;;;;3.00;2.05;;;;;;;;;;5038526;28;20204;-85
2022/05/31 11:22:37;;;;;;;2.45;1.70;;;;;;;;;;5040072;28;20299;-85
2022/05/31 11:25:22;;;;;;;1.67;1.58;;;;;;;;;;5043573;28;20288;-84
2022/05/31 11:27:56;;;;;;;4.50;2.25;;;;;;;;;;5035534;28;20207;-83
2022/05/31 11:30:28;;;;;;;2.13;1.90;;;;;;;;;;5043217;28;20198;-84
2022/05/31 11:33:04;;;;;;;1.88;1.70;;;;;;;;;;5045704;28;20220;-84
2022/05/31 11:35:42;;;;;;;2.10;1.88;;;;;;;;;;5037777;28;20285;-81
2022/05/31 11:38:13;;;;;;;3.22;2.10;;;;;;;;;;5054109;28;20521;-80
2022/05/31 11:40:46;;;;;;;1.70;1.60;;;;;;;;;;5045256;28;20191;-79
2022/05/31 11:43:28;;;;;;;2.40;2.05;;;;;;;;;;5042374;28;20242;-79
2022/05/31 11:46:00;;;;;;;3.58;2.22;;;;;;;;;;5047084;28;20193;-81
2022/05/31 11:48:40;;;;;;;2.60;2.40;;;;;;;;;;5049814;28;20242;-81
2022/05/31 11:51:13;;;;;;;3.53;1.80;;;;;;;;;;5048302;28;20191;-80
2022/05/31 11:53:49;;;;;;;2.95;2.17;;;;;;;;;;5047939;28;20227;-80
2022/05/31 11:56:21;;;;;;;2.10;1.80;;;;;;;;;;5049766;28;20689;-79
2022/05/31 11:58:51;;;;;;;3.05;1.80;;;;;;;;;;5040718;28;20641;-81
2022/05/31 12:01:21;;;;;;;2.25;1.73;;;;;;;;;;5050302;28;20678;-81
2022/05/31 12:03:53;;;;;;;2.28;1.55;;;;;;;;;;5046088;28;20511;-82
2022/05/31 12:06:24;;;;;;;1.70;1.60;;;;;;;;;;5046446;28;20345;-81
2022/05/31 12:08:55;;;;;;;2.95;1.65;;;;;;;;;;5036109;28;20266;-80
2022/05/31 12:11:24;;;;;;;1.83;1.63;;;;;;;;;;5049039;28;20262;-81
2022/05/31 12:13:52;;;;;;;2.80;1.85;;;;;;;;;;5046181;28;20227;-80
2022/05/31 12:16:21;;;;;;;2.65;1.77;;;;;;;;;;5045969;28;20208;-81
2022/05/31 12:18:53;;;;;;;2.75;2.08;;;;;;;;;;5046942;28;20206;-81
2022/05/31 12:21:23;;;;;;;2.17;1.63;;;;;;;;;;5032506;28;20984;-81
2022/05/31 12:23:52;;;;;;;2.22;1.90;;;;;;;;;;5036045;28;20279;-83
2022/05/31 12:26:22;;;;;;;1.80;1.70;;;;;;;;;;5041367;28;20207;-83
2022/05/31 12:28:51;;;;;;;2.00;1.75;;;;;;;;;;5045557;28;20207;-83
2022/05/31 12:31:23;;;;;;;4.30;2.20;;;;;;;;;;5037131;28;20231;-82
2022/05/31 12:33:50;;;;;;;2.53;2.33;;;;;;;;;;5045118;28;20594;-82
2022/05/31 12:36:18;;;;;;;2.95;1.67;;;;;;;;;;5041959;28;20203;-83
2022/05/31 12:39:09;;;;;;;3.17;2.00;;;;;;;;;;5047122;28;20281;-83
2022/05/31 12:41:39;;;;;;;2.25;2.05;;;;;;;;;;5031985;28;20247;-82
2022/05/31 12:44:11;;;;;;;4.43;2.33;;;;;;;;;;5046762;28;20191;-82
2022/05/31 12:46:41;;;;;;;2.47;1.98;;;;;;;;;;5050717;28;20575;-82
2022/05/31 12:49:11;;;;;;;3.63;1.90;;;;;;;;;;5050754;28;20208;-82
2022/05/31 12:51:38;;;;;;;2.40;1.80;;;;;;;;;;5039921;28;20204;-82
2022/05/31 12:54:13;;;;;;;1.65;1.55;;;;;;;;;;5048118;28;20259;-82
2022/05/31 12:56:56;;;;;;;2.90;1.85;;;;;;;;;;5045517;28;20718;-80
2022/05/31 12:59:44;;;;;;;1.75;1.40;;;;;;;;;;5041115;28;20199;-82
2022/05/31 13:02:22;;;;;;;1.70;1.60;;;;;;;;;;5045051;28;20211;-81
2022/05/31 13:04:54;;;;;;;1.80;1.70;;;;;;;;;;5048165;28;20192;-81
2022/05/31 13:07:22;;;;;;;3.25;1.60;;;;;;;;;;5051433;28;20224;-81
2022/05/31 13:09:49;;;;;;;2.15;1.65;;;;;;;;;;5050083;28;20203;-81
2022/05/31 13:20:56;;;;;;;3.50;1.77;;;;;;;;;;5031048;28;20799;-81
2022/05/31 13:23:24;;;;;;;2.60;2.40;;;;;;;;;;5047857;28;20330;-81
2022/05/31 13:25:53;;;;;;;1.65;1.55;;;;;;;;;;5045903;28;20210;-82
2022/05/31 13:28:29;;;;;;;2.10;1.88;;;;;;;;;;5053164;28;20200;-81
2022/05/31 13:30:58;;;;;;;1.73;1.50;;;;;;;;;;5041698;28;20204;-81
2022/05/31 13:33:27;;;;;;;1.60;1.50;;;;;;;;;;5049126;28;20683;-83
2022/05/31 13:35:59;;;;;;;3.45;1.92;;;;;;;;;;5046050;28;20224;-81
2022/05/31 13:38:29;;;;;;;4.72;2.50;;;;;;;;;;5049494;28;20240;-80
2022/05/31 13:40:57;;;;;;;4.07;1.70;;;;;;;;;;5049436;28;20204;-81
2022/05/31 13:43:25;;;;;;;2.40;1.60;;;;;;;;;;5045753;28;20633;-82
2022/05/31 13:45:53;;;;;;;2.60;1.80;;;;;;;;;;5039157;28;20203;-81
2022/05/31 13:48:21;;;;;;;2.28;2.08;;;;;;;;;;5047611;28;20204;-81
2022/05/31 13:50:54;;;;;;;3.20;2.50;;;;;;;;;;5046686;28;20560;-82
2022/05/31 13:53:22;;;;;;;4.05;2.05;;;;;;;;;;5050420;28;20201;-82
2022/05/31 13:55:55;;;;;;;1.80;1.60;;;;;;;;;;5062901;28;20294;-81
2022/05/31 13:58:24;;;;;;;2.47;1.75;;;;;;;;;;5050676;28;20216;-81
2022/05/31 14:00:51;;;;;;;1.65;1.55;;;;;;;;;;5047075;28;20199;-82
2022/05/31 14:03:21;;;;;;;3.85;1.98;;;;;;;;;;5048879;28;20203;-81
2022/05/31 14:05:53;;;;;;;2.17;1.98;;;;;;;;;;5050523;28;20200;-81
2022/05/31 14:08:32;;;;;;;1.90;1.70;;;;;;;;;;5045516;28;20217;-80
2022/05/31 14:10:59;;;;;;;1.83;1.58;;;;;;;;;;5049532;28;20290;-81
2022/05/31 14:13:28;;;;;;;1.90;1.80;;;;;;;;;;5053983;28;20704;-81
2022/05/31 14:16:12;;;;;;;3.35;2.40;;;;;;;;;;5050680;28;20224;-80
2022/05/31 14:18:47;;;;;;;3.67;1.85;;;;;;;;;;5039966;28;20201;-80
2022/05/31 14:21:15;;;;;;;1.67;1.58;;;;;;;;;;5043494;28;20732;-82
2022/05/31 14:23:44;;;;;;;2.20;2.00;;;;;;;;;;5053829;28;20204;-82
2022/05/31 14:26:11;;;;;;;2.05;1.85;;;;;;;;;;5043377;28;20202;-81
2022/05/31 14:28:58;;;;;;;1.65;1.55;;;;;;;;;;5041982;28;20217;-81
2022/05/31 14:31:26;;;;;;;1.83;1.73;;;;;;;;;;5044025;28;20252;-82
2022/05/31 14:33:53;;;;;;;1.60;1.50;;;;;;;;;;5051425;28;20240;-81
2022/05/31 14:36:30;;;;;;;2.92;1.55;;;;;;;;;;5045736;28;20695;-82
2022/05/31 14:39:01;;;;;;;1.52;1.42;;;;;;;;;;5046061;28;20280;-81
2022/05/31 14:41:32;;;;;;;2.05;1.40;;;;;;;;;;5048150;28;20213;-81
2022/05/31 14:44:00;;;;;;;1.90;1.52;;;;;;;;;;5047350;28;20205;-81
2022/05/31 14:46:28;;;;;;;2.03;1.65;;;;;;;;;;5047729;28;20214;-82
2022/05/31 14:49:05;;;;;;;1.45;1.35;;;;;;;;;;5047603;28;20197;-81
2022/05/31 14:51:33;;;;;;;2.28;1.42;;;;;;;;;;5048091;28;20196;-81
2022/05/31 14:54:01;;;;;;;2.08;1.67;;;;;;;;;;5050581;28;20650;-81
2022/05/31 14:56:31;;;;;;;1.50;1.40;;;;;;;;;;5041853;28;20284;-81
2022/05/31 14:59:00;;;;;;;1.70;1.60;;;;;;;;;;5039078;28;20208;-81
2022/05/31 15:01:29;;;;;;;2.97;1.50;;;;;;;;;;5037477;28;20182;-83
2022/05/31 15:04:01;;;;;;;1.67;1.58;;;;;;;;;;5044631;28;20545;-83
2022/05/31 15:06:29;;;;;;;1.67;1.58;;;;;;;;;;5051723;28;20199;-82
2022/05/31 15:09:03;;;;;;;2.45;2.25;;;;;;;;;;5039903;28;20201;-83
2022/05/31 15:19:46;;;;;;;1.50;1.30;;;;;;;;;;5045258;28;20602;-83
2022/05/31 15:22:15;;;;;;;2.80;2.28;;;;;;;;;;5039704;28;20197;-82
2022/05/31 15:24:45;;;;;;;2.05;1.80;;;;;;;;;;5044726;28;20207;-83
2022/05/31 15:27:15;;;;;;;1.60;1.50;;;;;;;;;;5045820;28;20195;-83
2022/05/31 15:29:42;;;;;;;1.67;1.55;;;;;;;;;;5036762;28;20447;-83
2022/05/31 15:32:09;;;;;;;2.25;2.05;;;;;;;;;;5045407;28;20574;-82